Langleyville, Illinois
Current Conditions -  °F | °C
As of 12:35 PM on Thursday 27 Nov 2014 (Local Time) from KTAZ Reporting Station
Overcast Overcast  
Wind Chill: -9°   Ceiling: 3000
Heat Index: -3°   Visibility: 10mi
Dew Point: -6°   Wind: 12mph
Humidity: 80%   Direction: 290°WNW
Pressure: 30.44"   Gusts: 18mph
Location:  39.5521°N, 89.3216°W
Report Text: KTAZ 271835Z AUTO 29010G16KT 10SM SCT016 OVC030 M03/M06 A3044 RMK AO2
Loading
Personal Weather Stations






























Interactive Weather Map New forecast layout! Learn more

10-Day Weather Forecast

Advertisements
Track Severe Weather on mobile